Terminal Aerodrome Forecast
Issued by NWS

Home | Current Version | Previous Version | Text Only | Print | Product List | Glossary On
Versions: 1 2 3 4 5 6 7 8 9 10 11 12 13
000
FTUS44 KCRP 041131
TAFALI
TAF
KALI 041131Z 0412/0512 14009KT P6SM SCT015 BKN050
      TEMPO 0413/0415 BKN015
     FM041500 14013KT P6SM VCSH SCT025 BKN050
     FM042000 13016G22KT P6SM SCT040 BKN100
     FM050100 13011KT P6SM SCT015 BKN250
     FM050700 14007KT P6SM BKN015=

USA.gov is the U.S. government's official web portal to all federal, state and local government web resources and services.